This is the latest recevied weather packets stored in our database for station/object OE-11399. If no packets are shown the sender has not sent any weather packets the latest 10 day(s).
| Time | Temp. | Humidity | Pressure | Rain* | Wind** | Luminosity | Snow |
|---|---|---|---|---|---|---|---|
| 1788122127 | 18.33° C | 72% | 854 hPa | 0 mm | - | 0 W/m² | - |
| 1788121527 | 18.33° C | 73% | 854 hPa | 0 mm | - | 0 W/m² | - |
| 1788120701 | 17.78° C | 74% | 854 hPa | 0 mm | - | 0 W/m² | - |
| 1788120328 | 18.33° C | 73% | 853.9 hPa | 0 mm | - | 0 W/m² | - |
| 1788119728 | 18.33° C | 72% | 854 hPa | 0 mm | - | 0 W/m² | - |
| 1788118901 | 18.33° C | 73% | 854 hPa | 0 mm | - | 0 W/m² | - |
| 1788118528 | 18.33° C | 73% | 853.8 hPa | 0 mm | - | 0 W/m² | - |
| 1788117928 | 18.89° C | 70% | 853.8 hPa | 0 mm | - | 0 W/m² | - |
| 1788117100 | 19.44° C | 68% | 853.8 hPa | 0 mm | - | 0 W/m² | - |
| 1788116727 | 19.44° C | 64% | 853.8 hPa | 0 mm | - | 0 W/m² | - |
| 1788116127 | 20° C | 60% | 853.8 hPa | 0 mm | - | 0 W/m² | - |
| 1788115300 | 20.56° C | 59% | 853.7 hPa | 0 mm | - | 0 W/m² | - |
| 1788114926 | 20.56° C | 59% | 853.6 hPa | 0 mm | - | 0 W/m² | - |
| 1788114327 | 21.11° C | 58% | 853.4 hPa | 0 mm | - | 0 W/m² | - |
| 1788113500 | 21.11° C | 58% | 853.4 hPa | 0 mm | - | 0 W/m² | - |
| 1788113127 | 21.67° C | 58% | 853.3 hPa | 0 mm | - | 0 W/m² | - |
| 1788112527 | 21.67° C | 57% | 853.2 hPa | 0 mm | - | 15 W/m² | - |
| 1788111939 | 22.22° C | 54% | 853.2 hPa | 0 mm | - | 29 W/m² | - |
| 1788111327 | 22.78° C | 50% | 853.3 hPa | 0 mm | - | 44 W/m² | - |
| 1788110727 | 22.78° C | 49% | 853.3 hPa | 0 mm | - | 37 W/m² | - |
| 1788109900 | 23.33° C | 49% | 853.3 hPa | 0 mm | - | 66 W/m² | - |
| 1788109527 | 23.33° C | 48% | 853.4 hPa | 0 mm | - | 117 W/m² | - |
| 1788108926 | 23.33° C | 48% | 853.4 hPa | 0 mm | - | 110 W/m² | - |
| 1788108100 | 23.89° C | 47% | 853.4 hPa | 0 mm | - | 125 W/m² | - |
| 1788107727 | 23.89° C | 48% | 853.4 hPa | 0 mm | - | 132 W/m² | - |
* Rain latest hour (hover to see other rain measurements)
** Current wind speed in m/s (hover to see current wind gust speed)